Nearby METAR Reports

 

NZWN - Wellington Intl, New Zealand
Distance from station: E 68km
Updated: 20/09/2018 22:30
Clear
Clear
 Wind from NNE
Wind: NNE 22 km/h
Temperature: 13°C
Dew Point: 8°C
Humidity: 72%
Barometer: 1005 hPa
Clouds: Clear
Visibility: 10 km
2018/09/20 10:30 NZWN 201030Z AUTO 03012KT 9999 NCD 13/08 Q1005 NOSIG
NZCH - Christchurch Int, New Zealand
Distance from station: SSW 269km
Updated: 20/09/2018 22:30
Clear
Clear
 Wind from SW
Wind: SW 6 km/h
Temperature: 4°C
Dew Point: 3°C
Humidity: 93%
Barometer: 1003 hPa
Clouds: Clear
Visibility: 10 km
2018/09/20 10:30 NZCH 201030Z AUTO 22003KT 9999 NCD 04/03 Q1003 NOSIG
 
NZAA - Auckland Intl Ar, New Zealand
Distance from station: N 480km
Updated: 20/09/2018 22:30
Partly cloudy
Partly cloudy
 Wind from WSW
Wind: WSW 13 km/h
Temperature: 13°C
Dew Point: 11°C
Humidity: 88%
Barometer: 1008 hPa
Clouds: Partly cloudy
Visibility: 10 km
Cloud details: Partly cloudy 427 m
2018/09/20 10:30 NZAA 201030Z AUTO 25007KT 9999 SCT014/// 13/11 Q1008 TEMPO BKN014